createdAt,value
2023-02-23T00:01:55.105Z,44.53
2023-02-23T00:04:24.787Z,46.57
2023-02-23T00:06:53.545Z,44.57
2023-02-23T00:09:26.016Z,42.23
2023-02-23T00:11:56.138Z,47.47
2023-02-23T00:14:27.952Z,45.87
2023-02-23T00:16:56.082Z,44.87
2023-02-23T00:19:25.755Z,43.53
2023-02-23T00:21:54.557Z,44.63
2023-02-23T00:24:26.998Z,44.70
2023-02-23T00:26:55.481Z,45.73
2023-02-23T00:29:25.622Z,46.77
2023-02-23T00:31:56.315Z,46.80
2023-02-23T00:34:24.558Z,45.73
2023-02-23T00:36:55.267Z,45.67
2023-02-23T00:39:28.885Z,42.47
2023-02-23T00:42:02.804Z,49.30
2023-02-23T00:44:32.299Z,44.33
2023-02-23T00:47:00.616Z,47.23
2023-02-23T00:49:28.881Z,47.57
2023-02-23T00:51:56.990Z,49.10
2023-02-23T00:54:26.597Z,47.40
2023-02-23T00:56:57.661Z,45.80
2023-02-23T00:59:25.712Z,43.80
2023-02-23T01:01:53.944Z,44.50
2023-02-23T01:04:23.330Z,44.17
2023-02-23T01:06:51.476Z,43.70
2023-02-23T01:09:28.100Z,45.13
2023-02-23T01:12:01.508Z,43.07
2023-02-23T01:14:31.240Z,42.13
2023-02-23T01:16:59.920Z,43.17
2023-02-23T01:19:28.556Z,42.50
2023-02-23T01:21:56.771Z,41.97
2023-02-23T01:24:24.971Z,42.77
2023-02-23T01:26:53.773Z,41.50
2023-02-23T01:29:23.218Z,44.30
2023-02-23T01:31:52.170Z,43.77
2023-02-23T01:34:21.731Z,43.33
2023-02-23T01:36:50.223Z,44.53
2023-02-23T01:39:20.980Z,42.90
2023-02-23T01:41:51.780Z,42.60
2023-02-23T01:44:58.494Z,42.90
2023-02-23T01:47:29.991Z,42.87
2023-02-23T01:49:58.529Z,44.07
2023-02-23T01:52:27.517Z,44.83
2023-02-23T01:54:57.486Z,44.00
2023-02-23T01:57:27.151Z,42.60
2023-02-23T01:59:56.509Z,44.47
2023-02-23T02:02:33.867Z,43.80
2023-02-23T02:05:08.413Z,44.70
2023-02-23T02:07:39.592Z,44.80
2023-02-23T02:10:38.621Z,48.90
2023-02-23T02:13:09.072Z,46.00
2023-02-23T02:15:44.077Z,46.43
2023-02-23T02:18:19.158Z,44.50
2023-02-23T02:21:23.227Z,43.60
2023-02-23T02:24:24.199Z,42.80
2023-02-23T02:27:11.603Z,45.07
2023-02-23T02:30:10.682Z,43.90
2023-02-23T02:33:16.657Z,46.60
2023-02-23T02:36:13.906Z,46.43
2023-02-23T02:38:53.995Z,49.50
2023-02-23T02:41:28.217Z,50.50
2023-02-23T02:44:03.299Z,47.87
2023-02-23T02:46:36.108Z,46.30
2023-02-23T02:49:07.835Z,49.03
2023-02-23T02:51:44.695Z,45.83
2023-02-23T02:54:24.415Z,46.97
2023-02-23T02:56:57.518Z,49.47
2023-02-23T02:59:45.517Z,50.43
2023-02-23T03:02:35.424Z,53.47
2023-02-23T03:05:26.449Z,55.07
2023-02-23T03:08:25.907Z,53.10
2023-02-23T03:11:18.386Z,54.67
2023-02-23T03:14:15.674Z,54.53
2023-02-23T03:17:11.227Z,53.70
2023-02-23T03:20:06.737Z,56.07
2023-02-23T03:22:58.195Z,57.57
2023-02-23T03:25:51.103Z,55.43
2023-02-23T03:28:43.378Z,54.47
2023-02-23T03:31:35.031Z,52.70
2023-02-23T03:34:30.420Z,54.87
2023-02-23T03:37:23.040Z,55.40
2023-02-23T03:40:16.021Z,56.13
2023-02-23T03:43:03.202Z,50.13
2023-02-23T03:45:50.822Z,53.43
2023-02-23T03:48:39.204Z,52.33
2023-02-23T03:51:30.651Z,53.87
2023-02-23T03:54:23.590Z,52.10
2023-02-23T03:57:12.158Z,53.97
2023-02-23T04:00:02.685Z,53.97
2023-02-23T04:02:53.151Z,54.07
2023-02-23T04:05:41.110Z,55.63
2023-02-23T04:08:30.709Z,53.33
2023-02-23T04:11:21.181Z,53.63
2023-02-23T04:13:54.418Z,53.60
2023-02-23T04:16:22.403Z,54.70
2023-02-23T04:18:52.020Z,52.80
2023-02-23T04:21:20.427Z,57.63
2023-02-23T04:23:48.998Z,55.37
2023-02-23T04:26:17.104Z,54.77
2023-02-23T04:28:45.097Z,56.67
2023-02-23T04:31:13.112Z,54.73
2023-02-23T04:33:41.111Z,55.20
2023-02-23T04:36:10.706Z,53.27
2023-02-23T04:38:38.779Z,51.53
2023-02-23T04:41:06.786Z,49.40
2023-02-23T04:43:34.838Z,50.63
2023-02-23T04:46:03.003Z,52.20
2023-02-23T04:48:31.021Z,51.57
2023-02-23T04:50:59.186Z,51.87
2023-02-23T04:53:28.624Z,54.93
2023-02-23T04:55:56.712Z,54.03
2023-02-23T04:58:24.740Z,52.10
2023-02-23T05:00:52.766Z,52.97
2023-02-23T05:03:20.850Z,49.47
2023-02-23T05:05:48.837Z,51.63
2023-02-23T05:08:16.896Z,48.60
2023-02-23T05:10:47.446Z,51.30
2023-02-23T05:13:16.260Z,50.33
2023-02-23T05:15:44.309Z,52.40
2023-02-23T05:18:12.625Z,50.60
2023-02-23T05:20:44.732Z,49.13
2023-02-23T05:23:13.186Z,50.37
2023-02-23T05:25:41.205Z,52.60
2023-02-23T05:28:10.651Z,53.07
2023-02-23T05:30:39.105Z,48.53
2023-02-23T05:33:07.142Z,51.27
2023-02-23T05:35:35.623Z,49.10
2023-02-23T05:38:03.629Z,49.27
2023-02-23T05:40:32.235Z,49.70
2023-02-23T05:43:00.877Z,49.70
2023-02-23T05:45:30.411Z,48.40
2023-02-23T05:47:58.850Z,51.03
2023-02-23T05:50:27.388Z,47.77
2023-02-23T05:52:55.555Z,50.13
2023-02-23T05:55:23.585Z,53.17
2023-02-23T05:57:51.676Z,51.60
2023-02-23T06:00:20.430Z,51.30
2023-02-23T06:02:52.299Z,51.77
2023-02-23T06:05:20.607Z,53.70
2023-02-23T06:07:48.608Z,52.57
2023-02-23T06:10:16.783Z,50.30
2023-02-23T06:12:44.864Z,52.30
2023-02-23T06:15:13.018Z,54.80
2023-02-23T06:17:41.044Z,52.00
2023-02-23T06:20:14.249Z,53.00
2023-02-23T06:22:42.887Z,50.73
2023-02-23T06:25:13.377Z,52.53
2023-02-23T06:27:42.193Z,54.40
2023-02-23T06:30:12.087Z,54.50
2023-02-23T06:32:40.408Z,54.33
2023-02-23T06:35:13.429Z,53.77
2023-02-23T06:37:41.552Z,54.93
2023-02-23T06:40:10.851Z,53.17
2023-02-23T06:42:38.897Z,54.40
2023-02-23T06:45:07.882Z,54.70
2023-02-23T06:47:35.870Z,54.23
2023-02-23T06:50:04.235Z,55.00
2023-02-23T06:52:34.128Z,54.63
2023-02-23T06:55:02.210Z,52.50
2023-02-23T06:57:30.383Z,51.50
2023-02-23T06:59:58.378Z,52.87
2023-02-23T07:02:26.378Z,51.47
2023-02-23T07:04:54.416Z,54.80
2023-02-23T07:07:22.830Z,51.80
2023-02-23T07:09:52.188Z,53.50
2023-02-23T07:12:21.031Z,52.20
2023-02-23T07:14:49.154Z,51.63
2023-02-23T07:17:17.816Z,51.90
2023-02-23T07:19:45.812Z,54.90
2023-02-23T07:22:13.850Z,53.50
2023-02-23T07:24:41.943Z,51.70
2023-02-23T07:27:11.353Z,52.37
2023-02-23T07:29:39.381Z,50.57
2023-02-23T07:32:07.559Z,49.93
2023-02-23T07:34:37.115Z,50.73
2023-02-23T07:37:05.117Z,48.37
2023-02-23T07:39:33.161Z,48.40
2023-02-23T07:42:01.319Z,45.77
2023-02-23T07:44:32.681Z,48.57
2023-02-23T07:47:00.748Z,46.20
2023-02-23T07:49:30.453Z,47.60
2023-02-23T07:51:58.495Z,46.00
2023-02-23T07:54:26.600Z,44.80
2023-02-23T07:56:54.891Z,44.70
2023-02-23T07:59:22.869Z,43.40
2023-02-23T08:01:52.730Z,41.13
2023-02-23T08:04:20.765Z,41.93
2023-02-23T08:06:48.808Z,40.60
2023-02-23T08:09:16.835Z,39.57
2023-02-23T08:11:45.100Z,39.27
2023-02-23T08:14:13.477Z,40.47
2023-02-23T08:16:41.701Z,41.47
2023-02-23T08:19:11.620Z,43.93
2023-02-23T08:21:39.607Z,44.27
2023-02-23T08:24:08.394Z,43.20
2023-02-23T08:26:37.966Z,44.27
2023-02-23T08:29:06.504Z,42.50
2023-02-23T08:31:35.034Z,44.40
2023-02-23T08:34:03.652Z,43.80
2023-02-23T08:36:33.090Z,43.10
2023-02-23T08:39:02.278Z,39.67
2023-02-23T08:41:30.340Z,39.00
2023-02-23T08:44:00.315Z,39.90
2023-02-23T08:46:28.622Z,39.20
2023-02-23T08:48:57.388Z,40.47
2023-02-23T08:51:25.921Z,42.73
2023-02-23T08:53:57.220Z,38.97
2023-02-23T08:56:27.137Z,39.90
2023-02-23T08:58:55.332Z,38.90
2023-02-23T09:01:23.600Z,38.83
2023-02-23T09:03:52.166Z,40.43
2023-02-23T09:06:24.137Z,43.00
2023-02-23T09:08:52.573Z,42.20
2023-02-23T09:11:22.287Z,41.17
2023-02-23T09:13:50.671Z,40.13
2023-02-23T09:16:19.097Z,40.47
2023-02-23T09:18:47.730Z,40.97
2023-02-23T09:21:21.092Z,39.07
2023-02-23T09:23:51.410Z,43.30
2023-02-23T09:26:24.803Z,41.93
2023-02-23T09:28:53.093Z,39.87
2023-02-23T09:31:24.689Z,40.73
2023-02-23T09:33:53.619Z,40.93
2023-02-23T09:36:24.174Z,38.80
2023-02-23T09:38:56.446Z,38.73
2023-02-23T09:42:01.346Z,38.27
2023-02-23T09:44:46.277Z,36.03
2023-02-23T09:47:29.573Z,36.03
2023-02-23T09:50:00.920Z,36.20
2023-02-23T09:52:44.828Z,35.70
2023-02-23T09:55:15.185Z,35.57
2023-02-23T09:57:47.936Z,36.13
2023-02-23T10:00:21.237Z,36.70
2023-02-23T10:03:18.887Z,39.13
2023-02-23T10:05:53.306Z,36.17
2023-02-23T10:08:37.666Z,34.13
2023-02-23T10:11:13.254Z,34.00
2023-02-23T10:13:53.970Z,34.53
2023-02-23T10:16:31.439Z,33.90
2023-02-23T10:19:07.101Z,34.63
2023-02-23T10:21:39.939Z,34.17
2023-02-23T10:24:13.639Z,31.77
2023-02-23T10:26:46.289Z,32.10
2023-02-23T10:29:27.447Z,32.70
2023-02-23T10:32:01.070Z,31.60
2023-02-23T10:34:30.032Z,32.23
2023-02-23T10:37:01.825Z,32.30
2023-02-23T10:39:31.669Z,31.63
2023-02-23T10:42:03.981Z,31.83
2023-02-23T10:44:36.072Z,31.53
2023-02-23T10:47:10.298Z,31.37
2023-02-23T10:49:44.662Z,29.67
2023-02-23T10:52:14.498Z,29.70
2023-02-23T10:54:45.926Z,29.63
2023-02-23T10:57:21.189Z,31.47
2023-02-23T11:00:33.026Z,33.07
2023-02-23T11:03:03.290Z,35.00
2023-02-23T11:05:45.383Z,33.30
2023-02-23T11:08:22.212Z,34.10
2023-02-23T11:11:01.848Z,33.63
2023-02-23T11:13:37.972Z,39.00
2023-02-23T11:16:13.076Z,35.60
2023-02-23T11:18:43.526Z,32.80
2023-02-23T11:21:14.360Z,32.93
2023-02-23T11:23:43.008Z,33.50
2023-02-23T11:26:28.453Z,34.20
2023-02-23T11:28:59.086Z,31.03
2023-02-23T11:31:34.682Z,32.10
2023-02-23T11:34:05.518Z,34.10
2023-02-23T11:36:35.702Z,32.30
2023-02-23T11:39:08.281Z,33.27
2023-02-23T11:41:37.619Z,33.07
2023-02-23T11:44:06.610Z,33.23
2023-02-23T11:46:39.876Z,32.50
2023-02-23T11:49:15.936Z,34.90
2023-02-23T11:51:50.183Z,32.17
2023-02-23T11:54:23.670Z,30.77
2023-02-23T11:56:55.208Z,35.37
2023-02-23T11:59:29.885Z,33.10
2023-02-23T12:02:07.528Z,35.07
2023-02-23T12:04:38.495Z,35.80
2023-02-23T12:07:38.792Z,33.40
2023-02-23T12:10:15.595Z,34.03
2023-02-23T12:12:52.856Z,35.10
2023-02-23T12:15:31.051Z,35.00
2023-02-23T12:18:05.330Z,36.00
2023-02-23T12:20:38.606Z,35.80
2023-02-23T12:23:11.220Z,37.20
2023-02-23T12:25:47.333Z,37.07
2023-02-23T12:28:26.085Z,37.27
2023-02-23T12:30:59.782Z,35.10
2023-02-23T12:33:35.084Z,35.70
2023-02-23T12:36:20.655Z,33.73
2023-02-23T12:38:57.251Z,40.50
2023-02-23T12:41:36.429Z,33.37
2023-02-23T12:44:19.251Z,32.20
2023-02-23T12:46:53.220Z,34.50
2023-02-23T12:49:31.415Z,33.47
2023-02-23T12:52:06.760Z,34.13
2023-02-23T12:54:35.581Z,34.53
2023-02-23T12:57:12.018Z,31.87
2023-02-23T13:00:01.838Z,32.77
2023-02-23T13:02:34.838Z,33.43
2023-02-23T13:05:24.593Z,34.50
2023-02-23T13:08:12.858Z,33.77
2023-02-23T13:10:49.839Z,35.30
2023-02-23T13:13:32.540Z,36.77
2023-02-23T13:16:08.576Z,33.10
2023-02-23T13:18:43.590Z,33.60
2023-02-23T13:21:18.866Z,32.67
2023-02-23T13:24:00.039Z,32.17
2023-02-23T13:26:38.486Z,31.27
2023-02-23T13:29:13.658Z,33.73
2023-02-23T13:31:44.907Z,33.50
2023-02-23T13:34:18.648Z,33.50
2023-02-23T13:36:50.514Z,32.10
2023-02-23T13:39:47.870Z,32.50
2023-02-23T13:42:31.285Z,33.73
2023-02-23T13:45:14.449Z,33.13
2023-02-23T13:47:49.156Z,34.47
2023-02-23T13:50:23.658Z,33.00
2023-02-23T13:52:58.371Z,32.60
2023-02-23T13:55:49.858Z,32.73
2023-02-23T13:58:26.896Z,32.20
2023-02-23T14:01:05.729Z,32.90
2023-02-23T14:03:42.393Z,30.67
2023-02-23T14:06:15.240Z,28.27
2023-02-23T14:08:52.281Z,27.67
2023-02-23T14:11:45.019Z,26.27
2023-02-23T14:14:17.269Z,26.40
2023-02-23T14:17:05.667Z,24.50
2023-02-23T14:19:37.985Z,24.03
2023-02-23T14:22:11.125Z,22.77
2023-02-23T14:24:39.674Z,21.90
2023-02-23T14:27:39.867Z,22.47
2023-02-23T14:30:49.801Z,23.00
2023-02-23T14:33:37.268Z,21.87
2023-02-23T14:36:53.188Z,21.80
2023-02-23T14:39:26.926Z,23.20
2023-02-23T14:41:57.017Z,23.13
2023-02-23T14:44:31.112Z,23.70
2023-02-23T14:47:04.312Z,21.57
2023-02-23T14:49:37.877Z,21.90
2023-02-23T14:52:10.593Z,20.07
2023-02-23T14:54:40.234Z,20.53
2023-02-23T14:57:20.632Z,19.57
2023-02-23T14:59:54.746Z,20.43
2023-02-23T15:02:25.182Z,22.00
2023-02-23T15:04:53.930Z,19.60
2023-02-23T15:07:32.170Z,18.70
2023-02-23T15:10:02.342Z,19.90
2023-02-23T15:12:35.679Z,19.60
2023-02-23T15:15:06.704Z,18.23
2023-02-23T15:17:35.898Z,18.37
2023-02-23T15:20:16.170Z,20.40
2023-02-23T15:22:49.647Z,21.10
2023-02-23T15:25:20.910Z,24.17
2023-02-23T15:27:49.457Z,19.17
2023-02-23T15:30:23.686Z,19.73
2023-02-23T15:33:01.370Z,21.40
2023-02-23T15:35:30.990Z,19.70
2023-02-23T15:38:14.101Z,18.70
2023-02-23T15:40:57.031Z,38.27
2023-02-23T15:43:29.508Z,21.27
2023-02-23T15:46:04.294Z,21.00
2023-02-23T15:48:45.913Z,21.10
2023-02-23T15:51:27.751Z,21.63
2023-02-23T15:53:57.593Z,22.03
2023-02-23T15:56:28.409Z,23.57
2023-02-23T15:58:59.381Z,23.80
2023-02-23T16:01:30.261Z,25.57
2023-02-23T16:04:02.356Z,23.83
2023-02-23T16:06:35.798Z,23.10
2023-02-23T16:09:21.298Z,23.73
2023-02-23T16:11:52.224Z,23.60
2023-02-23T16:14:21.697Z,23.10
2023-02-23T16:17:08.414Z,24.97
2023-02-23T16:19:40.947Z,24.30
2023-02-23T16:22:21.096Z,25.63
2023-02-23T16:24:58.851Z,25.40
2023-02-23T16:27:29.292Z,27.03
2023-02-23T16:30:00.309Z,27.37
2023-02-23T16:32:35.833Z,25.87
2023-02-23T16:35:10.709Z,28.77
2023-02-23T16:38:03.195Z,29.17
2023-02-23T16:40:33.442Z,27.43
2023-02-23T16:43:01.519Z,28.83
2023-02-23T16:45:29.910Z,30.80
2023-02-23T16:48:02.313Z,29.00
2023-02-23T16:50:32.533Z,29.57
2023-02-23T16:53:02.118Z,29.40
2023-02-23T16:55:39.162Z,31.20
2023-02-23T16:58:11.873Z,30.93
2023-02-23T17:00:39.957Z,29.60
2023-02-23T17:03:11.698Z,29.90
2023-02-23T17:05:40.049Z,28.20
2023-02-23T17:08:10.538Z,28.40
2023-02-23T17:10:41.322Z,27.40
2023-02-23T17:13:17.776Z,26.57
2023-02-23T17:15:51.721Z,26.60
2023-02-23T17:18:20.399Z,24.77
2023-02-23T17:20:48.706Z,24.93
2023-02-23T17:23:16.728Z,23.10
2023-02-23T17:25:46.131Z,26.17
2023-02-23T17:28:14.484Z,24.60
2023-02-23T17:30:44.475Z,24.33
2023-02-23T17:33:12.756Z,24.10
2023-02-23T17:35:41.002Z,25.90
2023-02-23T17:38:09.611Z,23.23
2023-02-23T17:40:38.012Z,24.47
2023-02-23T17:43:08.642Z,24.13
2023-02-23T17:45:37.073Z,25.77
2023-02-23T17:48:05.433Z,22.83
2023-02-23T17:50:33.575Z,25.37
2023-02-23T17:53:01.627Z,22.77
2023-02-23T17:55:30.040Z,22.70
2023-02-23T17:57:58.141Z,22.63
2023-02-23T18:00:28.686Z,233.67
2023-02-23T18:02:57.150Z,35.30
2023-02-23T18:05:25.266Z,20.70
2023-02-23T18:07:53.329Z,20.70
2023-02-23T18:10:25.325Z,18.40
2023-02-23T18:12:53.717Z,20.97
2023-02-23T18:15:22.456Z,19.40
2023-02-23T18:17:54.627Z,20.57
2023-02-23T18:20:23.102Z,19.63
2023-02-23T18:22:51.383Z,19.13
2023-02-23T18:25:26.618Z,19.23
2023-02-23T18:27:58.563Z,19.20
2023-02-23T18:30:27.145Z,19.10
2023-02-23T18:33:00.477Z,19.47
2023-02-23T18:35:28.787Z,19.37
2023-02-23T18:37:56.996Z,21.63
2023-02-23T18:40:25.827Z,18.00
2023-02-23T18:42:54.029Z,19.10
2023-02-23T18:45:22.248Z,19.43
2023-02-23T18:47:51.516Z,18.30
2023-02-23T18:50:21.998Z,18.97
2023-02-23T18:52:51.285Z,19.67
2023-02-23T18:55:22.062Z,18.83
2023-02-23T18:57:50.861Z,19.67
2023-02-23T19:00:20.460Z,21.90
2023-02-23T19:02:49.396Z,20.50
2023-02-23T19:05:21.050Z,21.27
2023-02-23T19:07:51.586Z,22.50
2023-02-23T19:10:19.942Z,19.73
2023-02-23T19:12:49.543Z,21.50
2023-02-23T19:15:17.948Z,26.27
2023-02-23T19:17:47.420Z,29.70
2023-02-23T19:20:15.867Z,21.90
2023-02-23T19:22:45.467Z,22.10
2023-02-23T19:25:15.343Z,21.67
2023-02-23T19:27:43.834Z,22.50
2023-02-23T19:30:14.303Z,21.17
2023-02-23T19:32:43.144Z,22.80
2023-02-23T19:35:14.707Z,20.60
2023-02-23T19:37:48.593Z,21.80
2023-02-23T19:40:20.764Z,22.07
2023-02-23T19:42:49.569Z,23.30
2023-02-23T19:45:18.627Z,23.77
2023-02-23T19:47:47.067Z,22.33
2023-02-23T19:50:17.734Z,23.20
2023-02-23T19:52:46.645Z,21.23
2023-02-23T19:55:17.057Z,20.93
2023-02-23T19:57:45.187Z,19.10
2023-02-23T20:00:14.517Z,20.53
2023-02-23T20:02:43.608Z,19.73
2023-02-23T20:05:13.216Z,19.67
2023-02-23T20:07:41.710Z,18.43
2023-02-23T20:10:13.884Z,19.20
2023-02-23T20:12:43.835Z,19.10
2023-02-23T20:15:14.707Z,19.50
2023-02-23T20:17:42.867Z,19.33
2023-02-23T20:20:12.415Z,18.27
2023-02-23T20:22:42.042Z,18.90
2023-02-23T20:25:15.959Z,18.67
2023-02-23T20:27:45.946Z,17.43
2023-02-23T20:30:15.341Z,17.10
2023-02-23T20:32:43.627Z,18.43
2023-02-23T20:35:14.065Z,16.73
2023-02-23T20:37:42.682Z,16.83
2023-02-23T20:40:16.987Z,15.50
2023-02-23T20:42:48.662Z,11.97
2023-02-23T20:45:19.237Z,15.03
2023-02-23T20:47:51.861Z,14.47
2023-02-23T20:50:21.469Z,14.57
2023-02-23T20:52:50.329Z,14.53
2023-02-23T20:55:19.803Z,14.00
2023-02-23T20:57:49.762Z,13.73
2023-02-23T21:00:31.772Z,13.67
2023-02-23T21:03:01.358Z,11.87
2023-02-23T21:05:32.045Z,13.10
2023-02-23T21:08:01.342Z,14.30
2023-02-23T21:10:32.644Z,14.97
2023-02-23T21:13:02.178Z,14.43
2023-02-23T21:15:30.519Z,20.47
2023-02-23T21:17:59.317Z,16.83
2023-02-23T21:20:28.523Z,13.63
2023-02-23T21:22:56.992Z,14.57
2023-02-23T21:25:27.125Z,15.67
2023-02-23T21:27:55.820Z,14.57
2023-02-23T21:30:28.530Z,15.07
2023-02-23T21:32:57.856Z,13.60
2023-02-23T21:35:26.059Z,14.60
2023-02-23T21:37:54.226Z,13.67
2023-02-23T21:40:23.496Z,14.70
2023-02-23T21:42:52.038Z,16.10
2023-02-23T21:45:20.733Z,38.37
2023-02-23T21:47:50.401Z,17.67
2023-02-23T21:50:20.092Z,14.53
2023-02-23T21:52:48.777Z,15.60
2023-02-23T21:55:21.933Z,20.33
2023-02-23T21:57:51.120Z,15.70
2023-02-23T22:00:21.621Z,16.83
2023-02-23T22:02:52.238Z,16.77
2023-02-23T22:05:20.781Z,17.70
2023-02-23T22:07:50.293Z,16.07
2023-02-23T22:10:19.812Z,16.40
2023-02-23T22:12:50.103Z,15.90
2023-02-23T22:15:18.307Z,16.53
2023-02-23T22:17:46.563Z,17.90
2023-02-23T22:20:20.263Z,15.50
2023-02-23T22:22:50.477Z,15.70
2023-02-23T22:25:20.661Z,15.90
2023-02-23T22:27:49.222Z,15.90
2023-02-23T22:30:20.788Z,17.40
2023-02-23T22:32:49.335Z,14.43
2023-02-23T22:35:19.217Z,14.40
2023-02-23T22:37:47.545Z,14.70
2023-02-23T22:40:16.698Z,14.70
2023-02-23T22:42:48.106Z,15.50
2023-02-23T22:45:17.362Z,14.70
2023-02-23T22:47:45.835Z,14.13
2023-02-23T22:50:17.890Z,14.53
2023-02-23T22:52:48.094Z,13.20
2023-02-23T22:55:16.459Z,14.77
2023-02-23T22:57:45.989Z,13.57
2023-02-23T23:00:16.961Z,14.93
2023-02-23T23:02:45.419Z,16.00
2023-02-23T23:05:14.469Z,14.33
2023-02-23T23:07:46.647Z,13.80
2023-02-23T23:10:17.648Z,12.93
2023-02-23T23:12:46.612Z,13.87
2023-02-23T23:15:17.306Z,13.53
2023-02-23T23:17:48.568Z,13.77
2023-02-23T23:20:18.761Z,14.83
2023-02-23T23:22:46.943Z,13.90
2023-02-23T23:25:22.551Z,13.27
2023-02-23T23:27:53.579Z,15.10
2023-02-23T23:30:25.968Z,14.27
2023-02-23T23:32:54.453Z,15.00
2023-02-23T23:35:23.010Z,15.07
2023-02-23T23:37:51.907Z,14.40
2023-02-23T23:40:24.590Z,16.00
2023-02-23T23:42:53.103Z,16.50
2023-02-23T23:45:24.218Z,17.03
2023-02-23T23:47:52.484Z,16.10
2023-02-23T23:50:26.399Z,18.20
2023-02-23T23:52:54.558Z,27.10
2023-02-23T23:55:24.240Z,25.27
2023-02-23T23:57:52.344Z,25.67
